sensor_id;sensor_type;location;lat;lon;timestamp;pressure;altitude;pressure_sealevel;temperature;humidity
70133;BME280;57495;49.922;7.966;2023-08-20T00:01:27;100248.16;;;22.93;100.00
70133;BME280;57495;49.922;7.966;2023-08-20T00:03:29;100257.19;;;22.87;100.00
70133;BME280;57495;49.922;7.966;2023-08-20T00:05:31;100251.72;;;22.87;100.00
70133;BME280;57495;49.922;7.966;2023-08-20T00:07:34;100248.38;;;22.85;100.00
70133;BME280;57495;49.922;7.966;2023-08-20T00:09:35;100247.16;;;22.81;100.00
70133;BME280;57495;49.922;7.966;2023-08-20T00:11:38;100248.84;;;22.82;100.00
70133;BME280;57495;49.922;7.966;2023-08-20T00:13:40;100250.50;;;22.83;100.00
70133;BME280;57495;49.922;7.966;2023-08-20T00:15:42;100250.50;;;22.83;100.00
70133;BME280;57495;49.922;7.966;2023-08-20T00:17:44;100247.16;;;22.81;100.00
70133;BME280;57495;49.922;7.966;2023-08-20T00:19:47;100250.50;;;22.83;100.00
70133;BME280;57495;49.922;7.966;2023-08-20T00:21:49;100252.59;;;22.81;100.00
70133;BME280;57495;49.922;7.966;2023-08-20T00:23:51;100245.94;;;22.77;100.00
70133;BME280;57495;49.922;7.966;2023-08-20T00:25:53;100248.88;;;22.75;100.00
70133;BME280;57495;49.922;7.966;2023-08-20T00:27:55;100253.91;;;22.78;100.00
70133;BME280;57495;49.922;7.966;2023-08-20T00:29:56;100249.25;;;22.79;100.00
70133;BME280;57495;49.922;7.966;2023-08-20T00:31:57;100252.41;;;22.76;100.00
70133;BME280;57495;49.922;7.966;2023-08-20T00:33:58;100253.50;;;22.75;100.00
70133;BME280;57495;49.922;7.966;2023-08-20T00:36:00;100259.78;;;22.69;100.00
70133;BME280;57495;49.922;7.966;2023-08-20T00:38:01;100256.44;;;22.67;100.00
70133;BME280;57495;49.922;7.966;2023-08-20T00:40:03;100258.13;;;22.68;100.00
70133;BME280;57495;49.922;7.966;2023-08-20T00:42:06;100252.69;;;22.68;100.00
70133;BME280;57495;49.922;7.966;2023-08-20T00:44:09;100251.03;;;22.60;100.00
70133;BME280;57495;49.922;7.966;2023-08-20T00:46:11;100249.75;;;22.63;100.00
70133;BME280;57495;49.922;7.966;2023-08-20T00:48:13;100245.59;;;22.53;100.00
70133;BME280;57495;49.922;7.966;2023-08-20T00:50:14;100250.63;;;22.56;100.00
70133;BME280;57495;49.922;7.966;2023-08-20T00:52:17;100247.69;;;22.58;100.00
70133;BME280;57495;49.922;7.966;2023-08-20T00:54:18;100244.72;;;22.59;100.00
70133;BME280;57495;49.922;7.966;2023-08-20T00:56:19;100243.28;;;22.57;100.00
70133;BME280;57495;49.922;7.966;2023-08-20T00:58:21;100244.78;;;22.53;100.00
70133;BME280;57495;49.922;7.966;2023-08-20T01:00:24;100231.56;;;22.50;100.00
70133;BME280;57495;49.922;7.966;2023-08-20T01:02:25;100239.75;;;22.50;100.00
70133;BME280;57495;49.922;7.966;2023-08-20T01:04:27;100234.31;;;22.43;100.00
70133;BME280;57495;49.922;7.966;2023-08-20T01:06:38;100231.38;;;22.45;100.00
70133;BME280;57495;49.922;7.966;2023-08-20T01:08:41;100223.59;;;22.48;100.00
70133;BME280;57495;49.922;7.966;2023-08-20T01:10:47;100223.03;;;22.33;100.00
70133;BME280;57495;49.922;7.966;2023-08-20T01:12:52;100234.81;;;22.27;100.00
70133;BME280;57495;49.922;7.966;2023-08-20T01:14:54;100230.63;;;22.17;100.00
70133;BME280;57495;49.922;7.966;2023-08-20T01:16:57;100224.97;;;22.12;100.00
70133;BME280;57495;49.922;7.966;2023-08-20T01:18:59;100228.09;;;22.16;100.00
70133;BME280;57495;49.922;7.966;2023-08-20T01:21:03;100221.59;;;22.17;100.00
70133;BME280;57495;49.922;7.966;2023-08-20T01:23:24;100227.69;;;22.06;100.00
70133;BME280;57495;49.922;7.966;2023-08-20T01:25:44;100233.59;;;21.96;100.00
70133;BME280;57495;49.922;7.966;2023-08-20T01:27:52;100228.59;;;21.86;100.00
70133;BME280;57495;49.922;7.966;2023-08-20T01:30:01;100234.84;;;21.87;100.00
70133;BME280;57495;49.922;7.966;2023-08-20T01:32:04;100226.28;;;21.90;100.00
70133;BME280;57495;49.922;7.966;2023-08-20T01:34:07;100242.59;;;21.76;100.00
70133;BME280;57495;49.922;7.966;2023-08-20T01:36:08;100246.19;;;21.70;100.00
70133;BME280;57495;49.922;7.966;2023-08-20T01:38:10;100248.91;;;21.77;100.00
70133;BME280;57495;49.922;7.966;2023-08-20T01:40:12;100245.78;;;21.73;100.00
70133;BME280;57495;49.922;7.966;2023-08-20T01:42:12;100242.84;;;21.68;100.00
70133;BME280;57495;49.922;7.966;2023-08-20T01:44:14;100248.69;;;21.72;100.00
70133;BME280;57495;49.922;7.966;2023-08-20T01:46:16;100253.94;;;21.73;100.00
70133;BME280;57495;49.922;7.966;2023-08-20T01:48:17;100256.88;;;21.78;100.00
70133;BME280;57495;49.922;7.966;2023-08-20T01:50:19;100269.22;;;21.68;100.00
70133;BME280;57495;49.922;7.966;2023-08-20T01:52:20;100268.19;;;21.62;100.00
70133;BME280;57495;49.922;7.966;2023-08-20T01:54:21;100265.66;;;21.60;100.00
70133;BME280;57495;49.922;7.966;2023-08-20T01:56:23;100271.53;;;21.64;100.00
70133;BME280;57495;49.922;7.966;2023-08-20T01:58:24;100270.91;;;21.62;100.00
70133;BME280;57495;49.922;7.966;2023-08-20T02:00:26;100273.81;;;21.54;100.00
70133;BME280;57495;49.922;7.966;2023-08-20T02:02:30;100276.06;;;21.37;100.00
70133;BME280;57495;49.922;7.966;2023-08-20T02:04:32;100279.25;;;21.54;100.00
70133;BME280;57495;49.922;7.966;2023-08-20T02:06:33;100276.53;;;21.54;100.00
70133;BME280;57495;49.922;7.966;2023-08-20T02:08:35;100277.13;;;21.42;100.00
70133;BME280;57495;49.922;7.966;2023-08-20T02:10:36;100267.06;;;21.43;100.00
70133;BME280;57495;49.922;7.966;2023-08-20T02:12:38;100269.63;;;21.45;100.00
70133;BME280;57495;49.922;7.966;2023-08-20T02:14:39;100267.13;;;21.50;100.00
70133;BME280;57495;49.922;7.966;2023-08-20T02:16:41;100265.66;;;21.54;100.00
70133;BME280;57495;49.922;7.966;2023-08-20T02:18:44;100263.78;;;21.48;100.00
70133;BME280;57495;49.922;7.966;2023-08-20T02:20:45;100267.53;;;21.53;100.00
70133;BME280;57495;49.922;7.966;2023-08-20T02:22:46;100268.59;;;21.46;100.00
70133;BME280;57495;49.922;7.966;2023-08-20T02:24:49;100266.69;;;21.46;100.00
70133;BME280;57495;49.922;7.966;2023-08-20T02:26:51;100269.22;;;21.54;100.00
70133;BME280;57495;49.922;7.966;2023-08-20T02:28:51;100263.38;;;21.51;100.00
70133;BME280;57495;49.922;7.966;2023-08-20T02:30:52;100269.63;;;21.51;100.00
70133;BME280;57495;49.922;7.966;2023-08-20T02:32:54;100265.84;;;21.52;100.00
70133;BME280;57495;49.922;7.966;2023-08-20T02:34:57;100262.94;;;21.54;100.00
70133;BME280;57495;49.922;7.966;2023-08-20T02:36:58;100259.59;;;21.52;100.00
70133;BME280;57495;49.922;7.966;2023-08-20T02:39:00;100261.28;;;21.53;100.00
70133;BME280;57495;49.922;7.966;2023-08-20T02:41:03;100262.50;;;21.50;100.00
70133;BME280;57495;49.922;7.966;2023-08-20T02:43:04;100257.06;;;21.57;100.00
70133;BME280;57495;49.922;7.966;2023-08-20T02:45:06;100262.72;;;21.49;100.00
70133;BME280;57495;49.922;7.966;2023-08-20T02:47:08;100262.94;;;21.54;100.00
70133;BME280;57495;49.922;7.966;2023-08-20T02:49:10;100262.50;;;21.50;100.00
70133;BME280;57495;49.922;7.966;2023-08-20T02:51:13;100257.88;;;21.44;100.00
70133;BME280;57495;49.922;7.966;2023-08-20T02:53:14;100259.16;;;21.41;100.00
70133;BME280;57495;49.922;7.966;2023-08-20T02:55:16;100257.66;;;21.26;100.00
70133;BME280;57495;49.922;7.966;2023-08-20T02:57:17;100256.59;;;21.33;100.00
70133;BME280;57495;49.922;7.966;2023-08-20T02:59:19;100257.44;;;21.34;100.00
70133;BME280;57495;49.922;7.966;2023-08-20T03:01:20;100251.78;;;21.35;100.00
70133;BME280;57495;49.922;7.966;2023-08-20T03:03:22;100251.38;;;21.38;100.00
70133;BME280;57495;49.922;7.966;2023-08-20T03:05:24;100245.72;;;21.33;100.00
70133;BME280;57495;49.922;7.966;2023-08-20T03:07:26;100241.53;;;21.37;100.00
70133;BME280;57495;49.922;7.966;2023-08-20T03:09:28;100244.88;;;21.33;100.00
70133;BME280;57495;49.922;7.966;2023-08-20T03:11:29;100242.16;;;21.33;100.00
70133;BME280;57495;49.922;7.966;2023-08-20T03:13:31;100242.78;;;21.28;100.00
70133;BME280;57495;49.922;7.966;2023-08-20T03:15:31;100240.06;;;21.28;100.00
70133;BME280;57495;49.922;7.966;2023-08-20T03:17:33;100240.91;;;21.22;100.00
70133;BME280;57495;49.922;7.966;2023-08-20T03:19:34;100247.38;;;21.21;100.00
70133;BME280;57495;49.922;7.966;2023-08-20T03:21:36;100248.47;;;21.27;100.00
70133;BME280;57495;49.922;7.966;2023-08-20T03:23:38;100245.50;;;21.21;100.00
70133;BME280;57495;49.922;7.966;2023-08-20T03:25:40;100250.75;;;21.23;100.00
70133;BME280;57495;49.922;7.966;2023-08-20T03:27:41;100255.34;;;21.29;100.00
70133;BME280;57495;49.922;7.966;2023-08-20T03:29:42;100260.78;;;21.29;100.00
70133;BME280;57495;49.922;7.966;2023-08-20T03:31:43;100258.69;;;21.24;100.00
70133;BME280;57495;49.922;7.966;2023-08-20T03:33:45;100258.47;;;21.26;100.00
70133;BME280;57495;49.922;7.966;2023-08-20T03:35:46;100254.50;;;21.22;100.00
70133;BME280;57495;49.922;7.966;2023-08-20T03:37:47;100255.75;;;21.26;100.00
70133;BME280;57495;49.922;7.966;2023-08-20T03:39:50;100255.13;;;21.24;100.00
70133;BME280;57495;49.922;7.966;2023-08-20T03:41:52;100257.84;;;21.24;100.00
70133;BME280;57495;49.922;7.966;2023-08-20T03:43:54;100256.59;;;21.20;100.00
70133;BME280;57495;49.922;7.966;2023-08-20T03:45:55;100258.69;;;21.24;100.00
70133;BME280;57495;49.922;7.966;2023-08-20T03:47:57;100260.34;;;21.19;100.00
70133;BME280;57495;49.922;7.966;2023-08-20T03:49:58;100262.44;;;21.17;100.00
70133;BME280;57495;49.922;7.966;2023-08-20T03:51:59;100257.44;;;21.14;100.00
70133;BME280;57495;49.922;7.966;2023-08-20T03:54:02;100262.00;;;21.13;100.00
70133;BME280;57495;49.922;7.966;2023-08-20T03:56:05;100263.06;;;21.19;100.00
70133;BME280;57495;49.922;7.966;2023-08-20T03:58:07;100265.38;;;21.22;100.00
70133;BME280;57495;49.922;7.966;2023-08-20T04:00:10;100265.59;;;21.27;100.00
70133;BME280;57495;49.922;7.966;2023-08-20T04:02:12;100272.31;;;21.31;100.00
70133;BME280;57495;49.922;7.966;2023-08-20T04:04:13;100272.50;;;21.23;100.00
70133;BME280;57495;49.922;7.966;2023-08-20T04:06:15;100283.41;;;21.23;100.00
70133;BME280;57495;49.922;7.966;2023-08-20T04:08:16;100279.19;;;21.20;100.00
70133;BME280;57495;49.922;7.966;2023-08-20T04:10:18;100287.53;;;21.19;100.00
70133;BME280;57495;49.922;7.966;2023-08-20T04:12:20;100291.72;;;21.15;100.00
70133;BME280;57495;49.922;7.966;2023-08-20T04:14:21;100289.00;;;21.15;100.00
70133;BME280;57495;49.922;7.966;2023-08-20T04:16:23;100289.00;;;21.15;100.00
70133;BME280;57495;49.922;7.966;2023-08-20T04:18:24;100293.41;;;21.16;100.00
70133;BME280;57495;49.922;7.966;2023-08-20T04:20:26;100295.91;;;21.11;100.00
70133;BME280;57495;49.922;7.966;2023-08-20T04:22:27;100294.22;;;21.03;100.00
70133;BME280;57495;49.922;7.966;2023-08-20T04:24:31;100290.66;;;21.02;100.00
70133;BME280;57495;49.922;7.966;2023-08-20T04:26:33;100294.63;;;20.93;100.00
70133;BME280;57495;49.922;7.966;2023-08-20T04:28:35;100304.22;;;20.96;100.00
70133;BME280;57495;49.922;7.966;2023-08-20T04:30:37;100300.06;;;20.93;100.00
70133;BME280;57495;49.922;7.966;2023-08-20T04:32:38;100310.09;;;20.99;100.00
70133;BME280;57495;49.922;7.966;2023-08-20T04:34:40;100306.31;;;21.00;100.00
70133;BME280;57495;49.922;7.966;2023-08-20T04:36:41;100296.75;;;21.04;100.00
70133;BME280;57495;49.922;7.966;2023-08-20T04:38:43;100303.25;;;21.10;100.00
70133;BME280;57495;49.922;7.966;2023-08-20T04:40:46;100299.03;;;21.08;100.00
70133;BME280;57495;49.922;7.966;2023-08-20T04:42:47;100309.72;;;21.02;100.00
70133;BME280;57495;49.922;7.966;2023-08-20T04:44:50;100304.66;;;20.99;100.00
70133;BME280;57495;49.922;7.966;2023-08-20T04:46:51;100317.81;;;20.96;100.00
70133;BME280;57495;49.922;7.966;2023-08-20T04:48:53;100315.16;;;21.02;100.00
70133;BME280;57495;49.922;7.966;2023-08-20T04:50:54;100313.25;;;21.03;100.00
70133;BME280;57495;49.922;7.966;2023-08-20T04:52:55;100305.91;;;20.97;100.00
70133;BME280;57495;49.922;7.966;2023-08-20T04:54:59;100305.94;;;21.03;100.00
70133;BME280;57495;49.922;7.966;2023-08-20T04:57:00;100300.50;;;21.03;100.00
70133;BME280;57495;49.922;7.966;2023-08-20T04:59:02;100299.22;;;21.06;100.00
70133;BME280;57495;49.922;7.966;2023-08-20T05:01:05;100309.72;;;21.02;100.00
70133;BME280;57495;49.922;7.966;2023-08-20T05:03:07;100314.13;;;21.17;100.00
70133;BME280;57495;49.922;7.966;2023-08-20T05:05:10;100309.50;;;21.11;100.00
70133;BME280;57495;49.922;7.966;2023-08-20T05:07:11;100313.09;;;21.24;100.00
70133;BME280;57495;49.922;7.966;2023-08-20T05:09:13;100313.94;;;21.25;100.00
70133;BME280;57495;49.922;7.966;2023-08-20T05:11:14;100315.22;;;21.29;100.00
70133;BME280;57495;49.922;7.966;2023-08-20T05:13:16;100315.84;;;21.31;100.00
70133;BME280;57495;49.922;7.966;2023-08-20T05:15:17;100319.41;;;21.38;100.00
70133;BME280;57495;49.922;7.966;2023-08-20T05:17:20;100317.75;;;21.44;100.00
70133;BME280;57495;49.922;7.966;2023-08-20T05:19:22;100313.56;;;21.41;100.00
70133;BME280;57495;49.922;7.966;2023-08-20T05:21:23;100313.34;;;21.43;100.00
70133;BME280;57495;49.922;7.966;2023-08-20T05:23:25;100316.50;;;21.47;100.00
70133;BME280;57495;49.922;7.966;2023-08-20T05:25:26;100324.03;;;21.45;100.00
70133;BME280;57495;49.922;7.966;2023-08-20T05:27:28;100330.75;;;21.49;100.00
70133;BME280;57495;49.922;7.966;2023-08-20T05:29:29;100328.25;;;21.47;100.00
70133;BME280;57495;49.922;7.966;2023-08-20T05:31:30;100331.56;;;21.42;100.00
70133;BME280;57495;49.922;7.966;2023-08-20T05:33:32;100341.25;;;21.45;100.00
70133;BME280;57495;49.922;7.966;2023-08-20T05:35:34;100333.25;;;21.43;100.00
70133;BME280;57495;49.922;7.966;2023-08-20T05:37:36;100333.69;;;21.54;100.00
70133;BME280;57495;49.922;7.966;2023-08-20T05:39:40;100344.81;;;21.59;100.00
70133;BME280;57495;49.922;7.966;2023-08-20T05:41:41;100337.88;;;21.50;100.00
70133;BME280;57495;49.922;7.966;2023-08-20T05:43:42;100350.47;;;21.51;100.00
70133;BME280;57495;49.922;7.966;2023-08-20T05:45:44;100348.72;;;21.43;100.00
70133;BME280;57495;49.922;7.966;2023-08-20T05:47:45;100342.91;;;21.46;100.00
70133;BME280;57495;49.922;7.966;2023-08-20T05:49:48;100344.13;;;21.43;100.00
70133;BME280;57495;49.922;7.966;2023-08-20T05:51:49;100342.91;;;21.53;100.00
70133;BME280;57495;49.922;7.966;2023-08-20T05:53:51;100335.81;;;21.58;100.00
70133;BME280;57495;49.922;7.966;2023-08-20T05:55:52;100341.69;;;21.62;100.00
70133;BME280;57495;49.922;7.966;2023-08-20T05:57:54;100335.81;;;21.58;100.00
70133;BME280;57495;49.922;7.966;2023-08-20T05:59:55;100350.41;;;21.44;100.00
70133;BME280;57495;49.922;7.966;2023-08-20T06:01:56;100345.00;;;21.51;100.00
70133;BME280;57495;49.922;7.966;2023-08-20T06:03:58;100345.84;;;21.65;100.00
70133;BME280;57495;49.922;7.966;2023-08-20T06:06:01;100344.63;;;21.80;100.00
70133;BME280;57495;49.922;7.966;2023-08-20T06:08:03;100343.56;;;21.95;100.00
70133;BME280;57495;49.922;7.966;2023-08-20T06:10:06;100340.00;;;22.08;100.00
70133;BME280;57495;49.922;7.966;2023-08-20T06:12:07;100344.59;;;22.20;100.00
70133;BME280;57495;49.922;7.966;2023-08-20T06:14:09;100342.94;;;22.19;100.00
70133;BME280;57495;49.922;7.966;2023-08-20T06:16:10;100347.16;;;22.29;100.00
70133;BME280;57495;49.922;7.966;2023-08-20T06:18:12;100352.16;;;22.32;100.00
70133;BME280;57495;49.922;7.966;2023-08-20T06:20:13;100345.66;;;22.26;100.00
70133;BME280;57495;49.922;7.966;2023-08-20T06:22:16;100357.81;;;22.37;100.00
70133;BME280;57495;49.922;7.966;2023-08-20T06:24:17;100355.31;;;22.49;100.00
70133;BME280;57495;49.922;7.966;2023-08-20T06:26:18;100356.75;;;22.58;100.00
70133;BME280;57495;49.922;7.966;2023-08-20T06:28:20;100357.78;;;22.64;100.00
70133;BME280;57495;49.922;7.966;2023-08-20T06:30:22;100356.22;;;22.88;100.00
70133;BME280;57495;49.922;7.966;2023-08-20T06:32:23;100364.59;;;23.06;100.00
70133;BME280;57495;49.922;7.966;2023-08-20T06:34:25;100365.34;;;23.20;100.00
70133;BME280;57495;49.922;7.966;2023-08-20T06:36:26;100366.44;;;23.12;100.00
70133;BME280;57495;49.922;7.966;2023-08-20T06:38:29;100364.56;;;23.00;100.00
70133;BME280;57495;49.922;7.966;2023-08-20T06:40:30;100362.06;;;23.05;100.00
70133;BME280;57495;49.922;7.966;2023-08-20T06:42:32;100364.34;;;23.08;100.00
70133;BME280;57495;49.922;7.966;2023-08-20T06:44:33;100354.53;;;22.87;100.00
70133;BME280;57495;49.922;7.966;2023-08-20T06:46:36;100358.69;;;23.03;100.00
70133;BME280;57495;49.922;7.966;2023-08-20T06:48:37;100354.69;;;23.12;100.00
70133;BME280;57495;49.922;7.966;2023-08-20T06:50:41;100355.78;;;23.43;100.00
70133;BME280;57495;49.922;7.966;2023-08-20T06:52:42;100359.22;;;23.63;100.00
70133;BME280;57495;49.922;7.966;2023-08-20T06:54:45;100360.00;;;23.70;100.00
70133;BME280;57495;49.922;7.966;2023-08-20T06:56:46;100362.03;;;23.82;100.00
70133;BME280;57495;49.922;7.966;2023-08-20T06:58:48;100370.78;;;23.97;100.00
70133;BME280;57495;49.922;7.966;2023-08-20T07:00:49;100361.97;;;23.95;100.00
70133;BME280;57495;49.922;7.966;2023-08-20T07:02:51;100364.06;;;24.18;100.00
70133;BME280;57495;49.922;7.966;2023-08-20T07:04:52;100360.53;;;24.36;100.00
70133;BME280;57495;49.922;7.966;2023-08-20T07:06:54;100364.28;;;24.42;100.00
70133;BME280;57495;49.922;7.966;2023-08-20T07:08:55;100371.44;;;24.61;100.00
70133;BME280;57495;49.922;7.966;2023-08-20T07:10:58;100361.50;;;24.85;100.00
70133;BME280;57495;49.922;7.966;2023-08-20T07:12:59;100369.63;;;25.11;100.00
70133;BME280;57495;49.922;7.966;2023-08-20T07:15:01;100370.81;;;25.15;100.00
70133;BME280;57495;49.922;7.966;2023-08-20T07:17:04;100374.13;;;25.23;100.00
70133;BME280;57495;49.922;7.966;2023-08-20T07:19:05;100382.97;;;25.37;100.00
70133;BME280;57495;49.922;7.966;2023-08-20T07:21:07;100376.47;;;25.50;100.00
70133;BME280;57495;49.922;7.966;2023-08-20T07:23:08;100382.41;;;25.65;99.97
70133;BME280;57495;49.922;7.966;2023-08-20T07:25:10;100379.75;;;25.71;100.00
70133;BME280;57495;49.922;7.966;2023-08-20T07:27:12;100384.41;;;25.70;100.00
70133;BME280;57495;49.922;7.966;2023-08-20T07:29:14;100387.97;;;25.71;100.00
70133;BME280;57495;49.922;7.966;2023-08-20T07:31:15;100386.47;;;25.75;100.00
70133;BME280;57495;49.922;7.966;2023-08-20T07:33:17;100380.00;;;25.99;100.00
70133;BME280;57495;49.922;7.966;2023-08-20T07:35:18;100378.94;;;26.12;100.00
70133;BME280;57495;49.922;7.966;2023-08-20T07:37:19;100380.34;;;26.03;100.00
70133;BME280;57495;49.922;7.966;2023-08-20T07:39:21;100386.06;;;26.01;100.00
70133;BME280;57495;49.922;7.966;2023-08-20T07:41:22;100377.53;;;26.10;99.48
70133;BME280;57495;49.922;7.966;2023-08-20T07:43:25;100381.09;;;26.22;99.65
70133;BME280;57495;49.922;7.966;2023-08-20T07:45:26;100383.59;;;26.23;98.49
70133;BME280;57495;49.922;7.966;2023-08-20T07:47:27;100386.47;;;26.29;98.22
70133;BME280;57495;49.922;7.966;2023-08-20T07:49:29;100379.41;;;26.45;96.96
70133;BME280;57495;49.922;7.966;2023-08-20T07:51:30;100384.22;;;26.61;97.83
70133;BME280;57495;49.922;7.966;2023-08-20T07:53:32;100382.66;;;26.65;95.52
70133;BME280;57495;49.922;7.966;2023-08-20T07:55:34;100378.72;;;26.73;96.99
70133;BME280;57495;49.922;7.966;2023-08-20T07:57:37;100381.81;;;26.76;95.59
70133;BME280;57495;49.922;7.966;2023-08-20T07:59:39;100384.22;;;26.73;96.06
70133;BME280;57495;49.922;7.966;2023-08-20T08:01:41;100375.66;;;26.98;94.76
70133;BME280;57495;49.922;7.966;2023-08-20T08:03:42;100381.34;;;27.20;92.26
70133;BME280;57495;49.922;7.966;2023-08-20T08:05:46;100379.78;;;27.36;93.39
70133;BME280;57495;49.922;7.966;2023-08-20T08:07:47;100376.44;;;27.22;92.94
70133;BME280;57495;49.922;7.966;2023-08-20T08:09:48;100373.69;;;27.34;92.75
70133;BME280;57495;49.922;7.966;2023-08-20T08:11:50;100371.72;;;27.46;92.07
70133;BME280;57495;49.922;7.966;2023-08-20T08:13:51;100370.78;;;27.69;91.00
70133;BME280;57495;49.922;7.966;2023-08-20T08:15:54;100381.00;;;27.74;88.95
70133;BME280;57495;49.922;7.966;2023-08-20T08:17:55;100381.91;;;27.91;92.06
70133;BME280;57495;49.922;7.966;2023-08-20T08:19:56;100378.25;;;28.03;90.52
70133;BME280;57495;49.922;7.966;2023-08-20T08:21:57;100380.66;;;27.99;87.60
70133;BME280;57495;49.922;7.966;2023-08-20T08:23:59;100382.25;;;28.12;87.29
70133;BME280;57495;49.922;7.966;2023-08-20T08:26:00;100386.72;;;28.35;87.08
70133;BME280;57495;49.922;7.966;2023-08-20T08:28:02;100391.38;;;28.34;85.34
70133;BME280;57495;49.922;7.966;2023-08-20T08:30:04;100386.78;;;28.40;83.23
70133;BME280;57495;49.922;7.966;2023-08-20T08:32:07;100385.72;;;28.58;83.55
70133;BME280;57495;49.922;7.966;2023-08-20T08:34:09;100388.19;;;28.77;84.51
70133;BME280;57495;49.922;7.966;2023-08-20T08:36:09;100386.16;;;28.72;84.40
70133;BME280;57495;49.922;7.966;2023-08-20T08:38:11;100390.66;;;29.00;82.71
70133;BME280;57495;49.922;7.966;2023-08-20T08:40:13;100381.97;;;29.30;83.91
70133;BME280;57495;49.922;7.966;2023-08-20T08:42:14;100391.00;;;29.26;82.52
70133;BME280;57495;49.922;7.966;2023-08-20T08:44:16;100390.56;;;29.34;81.36
70133;BME280;57495;49.922;7.966;2023-08-20T08:46:17;100391.44;;;29.40;80.80
70133;BME280;57495;49.922;7.966;2023-08-20T08:48:21;100396.84;;;29.29;76.13
70133;BME280;57495;49.922;7.966;2023-08-20T08:50:22;100397.84;;;29.45;77.97
70133;BME280;57495;49.922;7.966;2023-08-20T08:52:24;100395.06;;;29.67;78.08
70133;BME280;57495;49.922;7.966;2023-08-20T08:54:27;100395.44;;;29.76;78.11
70133;BME280;57495;49.922;7.966;2023-08-20T08:56:28;100399.44;;;29.63;76.59
70133;BME280;57495;49.922;7.966;2023-08-20T08:58:29;100391.44;;;29.94;80.60
70133;BME280;57495;49.922;7.966;2023-08-20T09:00:31;100389.25;;;29.96;78.86
70133;BME280;57495;49.922;7.966;2023-08-20T09:02:32;100393.75;;;30.02;79.01
70133;BME280;57495;49.922;7.966;2023-08-20T09:04:38;100401.94;;;30.24;77.98
70133;BME280;57495;49.922;7.966;2023-08-20T09:06:46;100396.41;;;30.30;75.36
70133;BME280;57495;49.922;7.966;2023-08-20T09:08:48;100394.84;;;30.34;73.98
70133;BME280;57495;49.922;7.966;2023-08-20T09:10:50;100394.44;;;30.57;73.17
70133;BME280;57495;49.922;7.966;2023-08-20T09:12:54;100398.00;;;30.53;75.01
70133;BME280;57495;49.922;7.966;2023-08-20T09:14:55;100389.47;;;30.59;74.54
70133;BME280;57495;49.922;7.966;2023-08-20T09:17:01;100390.09;;;30.72;72.02
70133;BME280;57495;49.922;7.966;2023-08-20T09:19:02;100389.59;;;30.85;73.20
70133;BME280;57495;49.922;7.966;2023-08-20T09:21:07;100387.38;;;30.77;69.98
70133;BME280;57495;49.922;7.966;2023-08-20T09:23:11;100393.97;;;30.71;68.64
70133;BME280;57495;49.922;7.966;2023-08-20T09:25:15;100383.41;;;30.62;68.50
70133;BME280;57495;49.922;7.966;2023-08-20T09:27:17;100389.44;;;31.02;69.72
70133;BME280;57495;49.922;7.966;2023-08-20T09:29:18;100386.75;;;31.17;68.29
70133;BME280;57495;49.922;7.966;2023-08-20T09:31:19;100393.94;;;31.24;68.04
70133;BME280;57495;49.922;7.966;2023-08-20T09:33:21;100392.63;;;31.41;66.92
70133;BME280;57495;49.922;7.966;2023-08-20T09:35:22;100397.63;;;31.45;67.78
70133;BME280;57495;49.922;7.966;2023-08-20T09:37:24;100397.09;;;31.48;65.23
70133;BME280;57495;49.922;7.966;2023-08-20T09:39:26;100402.84;;;31.41;64.31
70133;BME280;57495;49.922;7.966;2023-08-20T09:41:26;100400.16;;;31.62;66.61
70133;BME280;57495;49.922;7.966;2023-08-20T09:43:30;100405.16;;;31.75;63.89
70133;BME280;57495;49.922;7.966;2023-08-20T09:45:32;100394.94;;;31.86;63.25
70133;BME280;57495;49.922;7.966;2023-08-20T09:47:35;100401.00;;;31.62;62.03
70133;BME280;57495;49.922;7.966;2023-08-20T09:49:38;100399.34;;;31.87;63.48
70133;BME280;57495;49.922;7.966;2023-08-20T09:51:40;100402.16;;;32.07;61.10
70133;BME280;57495;49.922;7.966;2023-08-20T09:53:49;100388.03;;;32.14;61.98
70133;BME280;57495;49.922;7.966;2023-08-20T09:55:52;100391.66;;;32.25;62.77
70133;BME280;57495;49.922;7.966;2023-08-20T09:57:57;100386.09;;;32.20;61.69
70133;BME280;57495;49.922;7.966;2023-08-20T10:00:00;100391.66;;;32.30;64.69
70133;BME280;57495;49.922;7.966;2023-08-20T10:02:03;100386.09;;;32.30;64.69
70133;BME280;57495;49.922;7.966;2023-08-20T10:04:05;100390.78;;;32.40;61.62
70133;BME280;57495;49.922;7.966;2023-08-20T10:06:07;100388.59;;;32.21;61.60
70133;BME280;57495;49.922;7.966;2023-08-20T10:08:07;100388.84;;;32.40;61.53
70133;BME280;57495;49.922;7.966;2023-08-20T10:10:10;100384.94;;;32.46;62.27
70133;BME280;57495;49.922;7.966;2023-08-20T10:12:13;100396.00;;;32.56;59.68
70133;BME280;57495;49.922;7.966;2023-08-20T10:14:15;100388.53;;;32.52;59.79
70133;BME280;57495;49.922;7.966;2023-08-20T10:16:17;100390.50;;;32.67;59.02
70133;BME280;57495;49.922;7.966;2023-08-20T10:18:21;100392.31;;;32.92;60.38
70133;BME280;57495;49.922;7.966;2023-08-20T10:20:23;100382.38;;;32.86;60.20
70133;BME280;57495;49.922;7.966;2023-08-20T10:22:32;100383.69;;;33.04;58.27
70133;BME280;57495;49.922;7.966;2023-08-20T10:24:44;100384.25;;;33.01;59.21
70133;BME280;57495;49.922;7.966;2023-08-20T10:27:07;100387.00;;;33.16;58.09
70133;BME280;57495;49.922;7.966;2023-08-20T10:29:34;100388.88;;;33.26;55.35
70133;BME280;57495;49.922;7.966;2023-08-20T10:31:45;100396.00;;;33.42;55.04
70133;BME280;57495;49.922;7.966;2023-08-20T10:33:50;100388.47;;;33.48;56.54